createdAt,value
2019-01-13T00:01:23.675Z,1.97
2019-01-13T00:03:52.164Z,2.27
2019-01-13T00:06:20.526Z,1.00
2019-01-13T00:08:48.926Z,1.90
2019-01-13T00:11:17.400Z,2.00
2019-01-13T00:13:48.215Z,1.90
2019-01-13T00:16:16.614Z,1.87
2019-01-13T00:18:47.998Z,2.10
2019-01-13T00:21:16.456Z,1.80
2019-01-13T00:23:44.823Z,2.03
2019-01-13T00:26:13.320Z,3.07
2019-01-13T00:28:41.791Z,1.67
2019-01-13T00:31:10.203Z,1.60
2019-01-13T00:33:38.578Z,1.00
2019-01-13T00:36:07.033Z,1.83
2019-01-13T00:38:35.771Z,1.17
2019-01-13T00:41:04.235Z,1.20
2019-01-13T00:43:32.686Z,1.57
2019-01-13T00:46:01.152Z,1.57
2019-01-13T00:48:29.682Z,1.90
2019-01-13T00:50:58.064Z,1.10
2019-01-13T00:53:26.479Z,2.23
2019-01-13T00:55:54.851Z,1.87
2019-01-13T00:58:23.216Z,1.67
2019-01-13T01:00:51.779Z,2.00
2019-01-13T01:03:20.216Z,2.03
2019-01-13T01:05:48.642Z,1.30
2019-01-13T01:08:17.167Z,1.83
2019-01-13T01:10:45.622Z,1.60
2019-01-13T01:13:14.096Z,2.13
2019-01-13T01:15:42.601Z,1.90
2019-01-13T01:18:11.127Z,2.10
2019-01-13T01:20:39.480Z,2.10
2019-01-13T01:23:07.951Z,1.20
2019-01-13T01:25:38.772Z,1.73
2019-01-13T01:28:07.252Z,1.70
2019-01-13T01:30:35.724Z,1.70
2019-01-13T01:33:04.176Z,2.00
2019-01-13T01:35:32.532Z,1.73
2019-01-13T01:38:01.023Z,1.57
2019-01-13T01:40:29.392Z,1.13
2019-01-13T01:42:57.823Z,2.07
2019-01-13T01:45:26.397Z,1.87
2019-01-13T01:47:54.760Z,1.83
2019-01-13T01:50:23.286Z,1.57
2019-01-13T01:52:51.682Z,1.50
2019-01-13T01:55:20.166Z,2.00
2019-01-13T01:57:48.602Z,1.10
2019-01-13T02:00:18.191Z,1.30
2019-01-13T02:02:46.696Z,2.77
2019-01-13T02:05:15.142Z,1.97
2019-01-13T02:07:43.725Z,1.70
2019-01-13T02:10:13.518Z,2.07
2019-01-13T02:12:42.020Z,2.27
2019-01-13T02:15:12.410Z,1.43
2019-01-13T02:17:40.894Z,2.10
2019-01-13T02:20:10.547Z,1.53
2019-01-13T02:22:38.928Z,2.13
2019-01-13T02:25:08.313Z,2.07
2019-01-13T02:27:36.680Z,1.60
2019-01-13T02:30:06.090Z,1.07
2019-01-13T02:32:34.525Z,1.50
2019-01-13T02:35:02.952Z,1.60
2019-01-13T02:37:31.332Z,1.13
2019-01-13T02:39:59.711Z,1.27
2019-01-13T02:42:28.177Z,2.27
2019-01-13T02:44:56.644Z,1.00
2019-01-13T02:47:25.033Z,1.50
2019-01-13T02:49:53.383Z,1.20
2019-01-13T02:52:21.766Z,1.10
2019-01-13T02:54:50.140Z,1.03
2019-01-13T02:57:18.544Z,0.90
2019-01-13T02:59:46.945Z,0.70
2019-01-13T03:02:15.356Z,1.33
2019-01-13T03:04:43.816Z,0.97
2019-01-13T03:07:12.234Z,1.40
2019-01-13T03:09:40.700Z,1.30
2019-01-13T03:12:09.190Z,1.00
2019-01-13T03:14:37.589Z,2.07
2019-01-13T03:17:06.135Z,1.50
2019-01-13T03:19:34.575Z,1.23
2019-01-13T03:22:02.967Z,1.50
2019-01-13T03:24:31.320Z,1.47
2019-01-13T03:26:59.726Z,2.43
2019-01-13T03:29:28.201Z,1.37
2019-01-13T03:31:56.627Z,1.30
2019-01-13T03:34:25.124Z,2.23
2019-01-13T03:36:53.497Z,1.30
2019-01-13T03:39:21.965Z,1.93
2019-01-13T03:41:50.348Z,2.30
2019-01-13T03:44:37.965Z,2.43
2019-01-13T03:47:06.420Z,1.60
2019-01-13T03:49:34.801Z,1.97
2019-01-13T03:52:03.244Z,1.70
2019-01-13T03:54:31.605Z,1.63
2019-01-13T03:56:59.993Z,1.83
2019-01-13T03:59:28.586Z,2.10
2019-01-13T04:01:56.966Z,1.50
2019-01-13T04:04:25.364Z,1.47
2019-01-13T04:06:53.724Z,2.10
2019-01-13T04:09:22.101Z,1.33
2019-01-13T04:11:50.483Z,1.57
2019-01-13T04:14:18.941Z,1.63
2019-01-13T04:16:47.381Z,1.73
2019-01-13T04:19:15.841Z,1.47
2019-01-13T04:21:44.287Z,1.67
2019-01-13T04:24:15.616Z,1.63
2019-01-13T04:26:44.010Z,1.87
2019-01-13T04:29:15.404Z,1.73
2019-01-13T04:31:43.780Z,1.83
2019-01-13T04:34:12.284Z,1.80
2019-01-13T04:36:40.646Z,1.97
2019-01-13T04:39:09.106Z,1.73
2019-01-13T04:41:37.596Z,2.00
2019-01-13T04:44:06.050Z,2.43
2019-01-13T04:46:34.400Z,1.80
2019-01-13T04:49:02.813Z,2.53
2019-01-13T04:51:31.272Z,1.50
2019-01-13T04:53:59.646Z,1.20
2019-01-13T04:56:27.994Z,2.10
2019-01-13T04:58:56.464Z,1.37
2019-01-13T05:01:24.853Z,1.40
2019-01-13T05:03:53.228Z,1.73
2019-01-13T05:06:21.626Z,1.60
2019-01-13T05:08:50.024Z,1.43
2019-01-13T05:11:18.386Z,1.43
2019-01-13T05:13:46.771Z,1.77
2019-01-13T05:16:15.133Z,1.60
2019-01-13T05:18:43.517Z,1.87
2019-01-13T05:21:11.961Z,1.20
2019-01-13T05:23:40.345Z,2.37
2019-01-13T05:26:08.714Z,1.23
2019-01-13T05:28:37.105Z,1.83
2019-01-13T05:31:05.565Z,1.63
2019-01-13T05:33:33.951Z,1.20
2019-01-13T05:36:02.392Z,0.60
2019-01-13T05:38:30.781Z,1.03
2019-01-13T05:40:59.131Z,0.90
2019-01-13T05:43:27.484Z,1.30
2019-01-13T05:45:55.870Z,0.50
2019-01-13T05:48:24.214Z,0.90
2019-01-13T05:50:52.600Z,0.87
2019-01-13T05:53:20.975Z,0.97
2019-01-13T05:55:49.353Z,0.93
2019-01-13T05:58:17.743Z,0.70
2019-01-13T06:00:46.236Z,1.20
2019-01-13T06:03:14.603Z,1.50
2019-01-13T06:05:42.991Z,1.80
2019-01-13T06:08:11.436Z,1.17
2019-01-13T06:10:39.893Z,0.90
2019-01-13T06:13:11.272Z,1.13
2019-01-13T06:15:39.666Z,1.10
2019-01-13T06:18:08.108Z,1.33
2019-01-13T06:20:36.492Z,1.73
2019-01-13T06:23:04.852Z,1.27
2019-01-13T06:25:33.306Z,1.20
2019-01-13T06:28:01.681Z,2.07
2019-01-13T06:30:30.138Z,1.63
2019-01-13T06:32:58.508Z,1.77
2019-01-13T06:35:26.958Z,1.87
2019-01-13T06:37:55.322Z,1.60
2019-01-13T06:40:24.037Z,2.13
2019-01-13T06:42:52.523Z,1.30
2019-01-13T06:45:22.101Z,1.83
2019-01-13T06:47:50.708Z,0.97
2019-01-13T06:50:22.491Z,1.77
2019-01-13T06:52:50.938Z,1.43
2019-01-13T06:55:19.320Z,1.50
2019-01-13T06:57:50.829Z,1.93
2019-01-13T07:00:23.112Z,1.90
2019-01-13T07:02:51.602Z,1.40
2019-01-13T07:05:20.118Z,1.10
2019-01-13T07:07:48.565Z,1.20
2019-01-13T07:10:17.025Z,1.03
2019-01-13T07:12:45.487Z,1.40
2019-01-13T07:15:14.147Z,0.80
2019-01-13T07:17:42.520Z,1.40
2019-01-13T07:20:12.166Z,1.03
2019-01-13T07:22:40.576Z,1.40
2019-01-13T07:25:08.930Z,1.27
2019-01-13T07:27:39.650Z,1.50
2019-01-13T07:30:27.257Z,1.63
2019-01-13T07:32:55.641Z,1.20
2019-01-13T07:35:24.224Z,1.53
2019-01-13T07:37:52.713Z,1.07
2019-01-13T07:40:21.563Z,1.00
2019-01-13T07:42:50.188Z,1.20
2019-01-13T07:45:22.583Z,1.20
2019-01-13T07:47:51.058Z,0.73
2019-01-13T07:50:19.449Z,0.80
2019-01-13T07:52:47.902Z,1.10
2019-01-13T07:55:17.217Z,1.40
2019-01-13T07:57:45.791Z,1.10
2019-01-13T08:00:19.558Z,1.00
2019-01-13T08:02:50.431Z,0.90
2019-01-13T08:05:18.846Z,1.00
2019-01-13T08:07:47.348Z,0.70
2019-01-13T08:10:15.883Z,1.20
2019-01-13T08:12:44.314Z,1.23
2019-01-13T08:15:13.908Z,0.80
2019-01-13T08:17:42.286Z,1.10
2019-01-13T08:20:12.922Z,0.97
2019-01-13T08:22:41.446Z,1.07
2019-01-13T08:25:09.898Z,0.70
2019-01-13T08:27:38.360Z,0.47
2019-01-13T08:30:08.671Z,1.10
2019-01-13T08:32:37.051Z,0.80
2019-01-13T08:35:06.137Z,1.00
2019-01-13T08:37:34.540Z,0.80
2019-01-13T08:40:07.275Z,0.70
2019-01-13T08:42:35.729Z,0.93
2019-01-13T08:45:04.993Z,0.83
2019-01-13T08:47:33.488Z,0.60
2019-01-13T08:50:01.929Z,0.70
2019-01-13T08:52:30.415Z,0.70
2019-01-13T08:54:58.884Z,0.50
2019-01-13T08:57:28.975Z,0.83
2019-01-13T08:59:57.428Z,0.67
2019-01-13T09:02:32.047Z,0.80
2019-01-13T09:04:56.126Z,0.67
2019-01-13T09:07:26.742Z,0.50
2019-01-13T09:09:55.156Z,0.50
2019-01-13T09:12:28.328Z,0.50
2019-01-13T09:15:01.467Z,0.40
2019-01-13T09:17:31.605Z,0.47
2019-01-13T09:20:00.033Z,0.50
2019-01-13T09:22:29.204Z,0.50
2019-01-13T09:24:59.704Z,0.33
2019-01-13T09:27:32.715Z,0.43
2019-01-13T09:30:01.208Z,0.47
2019-01-13T09:32:29.740Z,0.30
2019-01-13T09:34:58.299Z,0.43
2019-01-13T09:37:28.973Z,0.80
2019-01-13T09:39:57.508Z,0.60
2019-01-13T09:42:28.340Z,0.93
2019-01-13T09:44:56.806Z,4.13
2019-01-13T09:47:27.543Z,0.60
2019-01-13T09:49:55.947Z,0.50
2019-01-13T09:52:24.377Z,0.50
2019-01-13T09:54:55.063Z,1.60
2019-01-13T09:57:23.556Z,0.40
2019-01-13T09:59:53.439Z,0.40
2019-01-13T10:02:22.048Z,0.30
2019-01-13T10:04:50.442Z,0.40
2019-01-13T10:07:18.882Z,0.40
2019-01-13T10:09:47.286Z,0.40
2019-01-13T10:12:15.684Z,0.40
2019-01-13T10:14:44.152Z,0.40
2019-01-13T10:17:12.544Z,0.40
2019-01-13T10:19:41.089Z,0.30
2019-01-13T10:22:09.646Z,0.40
2019-01-13T10:24:38.143Z,0.40
2019-01-13T10:27:07.971Z,0.40
2019-01-13T10:29:37.987Z,0.20
2019-01-13T10:32:06.585Z,0.30
2019-01-13T10:34:35.085Z,0.20
2019-01-13T10:37:03.564Z,0.20
2019-01-13T10:39:31.948Z,0.20
2019-01-13T10:42:00.367Z,0.30
2019-01-13T10:44:28.795Z,0.27
2019-01-13T10:46:57.255Z,0.27
2019-01-13T10:49:25.833Z,0.40
2019-01-13T10:51:54.223Z,0.30
2019-01-13T10:54:22.714Z,0.60
2019-01-13T10:56:51.204Z,0.80
2019-01-13T10:59:22.462Z,0.40
2019-01-13T11:01:51.092Z,0.30
2019-01-13T11:04:19.610Z,0.40
2019-01-13T11:06:49.542Z,0.40
2019-01-13T11:09:25.706Z,0.53
2019-01-13T11:11:55.936Z,0.57
2019-01-13T11:14:26.977Z,0.60
2019-01-13T11:16:58.739Z,0.80
2019-01-13T11:19:27.556Z,0.30
2019-01-13T11:21:56.046Z,0.33
2019-01-13T11:24:24.483Z,0.40
2019-01-13T11:26:52.884Z,0.70
2019-01-13T11:29:22.874Z,0.93
2019-01-13T11:31:54.428Z,0.40
2019-01-13T11:34:22.998Z,0.50
2019-01-13T11:36:51.383Z,0.30
2019-01-13T11:39:20.122Z,0.77
2019-01-13T11:41:48.807Z,0.40
2019-01-13T11:44:19.999Z,0.50
2019-01-13T11:46:48.451Z,0.40
2019-01-13T11:49:28.411Z,0.70
2019-01-13T11:51:56.616Z,0.67
2019-01-13T11:54:31.453Z,0.50
2019-01-13T11:56:57.671Z,0.50
2019-01-13T11:59:26.135Z,0.60
2019-01-13T12:01:54.542Z,0.60
2019-01-13T12:04:22.965Z,0.30
2019-01-13T12:06:51.429Z,0.57
2019-01-13T12:09:19.978Z,0.73
2019-01-13T12:11:49.737Z,0.70
2019-01-13T12:14:20.917Z,0.53
2019-01-13T12:16:49.397Z,0.67
2019-01-13T12:19:17.894Z,0.80
2019-01-13T12:21:46.292Z,0.90
2019-01-13T12:24:14.807Z,1.10
2019-01-13T12:26:43.377Z,0.73
2019-01-13T12:29:14.335Z,1.50
2019-01-13T12:31:44.536Z,1.17
2019-01-13T12:34:14.272Z,1.30
2019-01-13T12:36:42.884Z,1.30
2019-01-13T12:39:13.126Z,1.37
2019-01-13T12:41:46.434Z,1.60
2019-01-13T12:44:18.306Z,1.60
2019-01-13T12:46:48.934Z,1.47
2019-01-13T12:49:17.255Z,1.73
2019-01-13T12:51:48.336Z,1.70
2019-01-13T12:54:19.017Z,2.40
2019-01-13T12:56:48.668Z,1.90
2019-01-13T12:59:19.296Z,2.40
2019-01-13T13:01:47.948Z,2.53
2019-01-13T13:04:16.509Z,1.90
2019-01-13T13:06:46.071Z,2.17
2019-01-13T13:09:18.129Z,2.40
2019-01-13T13:11:46.675Z,2.60
2019-01-13T13:14:15.214Z,2.83
2019-01-13T13:16:43.656Z,2.33
2019-01-13T13:19:12.137Z,2.37
2019-01-13T13:21:40.645Z,2.70
2019-01-13T13:24:09.103Z,1.80
2019-01-13T13:26:37.586Z,2.83
2019-01-13T13:29:06.084Z,2.53
2019-01-13T13:31:34.582Z,2.60
2019-01-13T13:34:03.112Z,3.37
2019-01-13T13:36:31.621Z,2.43
2019-01-13T13:39:02.414Z,2.20
2019-01-13T13:41:30.976Z,2.33
2019-01-13T13:43:59.455Z,2.13
2019-01-13T13:46:30.679Z,3.00
2019-01-13T13:49:02.376Z,2.10
2019-01-13T13:51:30.899Z,2.70
2019-01-13T13:53:59.414Z,2.37
2019-01-13T13:56:27.997Z,2.20
2019-01-13T13:58:56.511Z,1.87
2019-01-13T14:01:25.177Z,3.03
2019-01-13T14:03:53.811Z,2.13
2019-01-13T14:06:28.623Z,2.40
2019-01-13T14:08:58.650Z,2.80
2019-01-13T14:11:27.219Z,2.43
2019-01-13T14:13:55.649Z,2.80
2019-01-13T14:16:24.118Z,2.60
2019-01-13T14:18:52.595Z,1.60
2019-01-13T14:21:21.096Z,2.37
2019-01-13T14:23:49.562Z,2.00
2019-01-13T14:26:18.109Z,2.33
2019-01-13T14:28:46.540Z,2.03
2019-01-13T14:31:15.007Z,2.60
2019-01-13T14:33:43.469Z,2.47
2019-01-13T14:36:12.111Z,3.50
2019-01-13T14:38:40.529Z,1.80
2019-01-13T14:41:09.049Z,1.83
2019-01-13T14:43:37.812Z,1.97
2019-01-13T14:46:06.316Z,1.80
2019-01-13T14:48:34.723Z,1.43
2019-01-13T14:51:03.234Z,1.73
2019-01-13T14:53:31.720Z,1.30
2019-01-13T14:57:23.322Z,1.30
2019-01-13T14:59:53.209Z,1.13
2019-01-13T15:02:22.981Z,1.63
2019-01-13T15:04:52.697Z,1.00
2019-01-13T15:07:22.634Z,1.10
2019-01-13T15:09:52.687Z,1.10
2019-01-13T15:12:23.024Z,1.03
2019-01-13T15:14:52.863Z,1.40
2019-01-13T15:17:24.503Z,3.33
2019-01-13T15:19:58.449Z,2.30
2019-01-13T15:22:28.833Z,1.17
2019-01-13T15:25:00.813Z,1.20
2019-01-13T15:27:47.480Z,1.30
2019-01-13T15:30:26.033Z,1.13
2019-01-13T15:32:56.977Z,1.20
2019-01-13T15:35:26.854Z,0.90
2019-01-13T15:37:56.930Z,1.63
2019-01-13T15:40:41.614Z,2.47
2019-01-13T15:43:11.345Z,3.20
2019-01-13T15:45:45.210Z,2.30
2019-01-13T15:48:14.916Z,1.80
2019-01-13T15:50:54.628Z,2.20
2019-01-13T15:53:25.098Z,2.83
2019-01-13T15:55:55.141Z,2.77
2019-01-13T15:58:27.145Z,2.53
2019-01-13T16:00:57.001Z,1.60
2019-01-13T16:03:29.785Z,2.33
2019-01-13T16:05:59.516Z,2.20
2019-01-13T16:08:31.250Z,2.10
2019-01-13T16:11:01.115Z,2.77
2019-01-13T16:13:30.952Z,1.90
2019-01-13T16:16:14.708Z,2.83
2019-01-13T16:18:46.818Z,4.83
2019-01-13T16:21:19.491Z,1.87
2019-01-13T16:23:49.423Z,2.07
2019-01-13T16:26:19.249Z,2.20
2019-01-13T16:28:48.960Z,2.37
2019-01-13T16:31:18.706Z,2.07
2019-01-13T16:33:49.646Z,1.37
2019-01-13T16:36:21.662Z,2.47
2019-01-13T16:38:52.849Z,2.20
2019-01-13T16:41:24.446Z,2.23
2019-01-13T16:43:54.293Z,1.73
2019-01-13T16:46:24.202Z,3.10
2019-01-13T16:48:54.080Z,2.93
2019-01-13T16:51:27.133Z,3.50
2019-01-13T16:53:56.874Z,2.30
2019-01-13T16:56:26.964Z,2.40
2019-01-13T16:58:58.322Z,1.73
2019-01-13T17:01:29.795Z,2.90
2019-01-13T17:04:01.729Z,2.07
2019-01-13T17:06:33.805Z,2.70
2019-01-13T17:09:06.883Z,2.80
2019-01-13T17:11:37.937Z,3.83
2019-01-13T17:14:10.865Z,2.70
2019-01-13T17:16:40.722Z,1.67
2019-01-13T17:19:10.613Z,3.77
2019-01-13T17:21:40.346Z,2.57
2019-01-13T17:24:10.115Z,3.03
2019-01-13T17:26:40.518Z,3.03
2019-01-13T17:29:10.353Z,3.73
2019-01-13T17:31:40.051Z,3.90
2019-01-13T17:34:13.140Z,3.53
2019-01-13T17:36:42.980Z,2.23
2019-01-13T17:39:13.490Z,4.07
2019-01-13T17:41:44.551Z,3.57
2019-01-13T17:44:14.382Z,4.40
2019-01-13T17:46:44.278Z,2.50
2019-01-13T17:49:14.285Z,3.00
2019-01-13T17:51:43.991Z,4.67
2019-01-13T17:54:13.908Z,3.87
2019-01-13T17:56:43.959Z,3.33
2019-01-13T17:59:16.576Z,3.73
2019-01-13T18:01:52.936Z,4.30
2019-01-13T18:04:22.941Z,3.63
2019-01-13T18:06:52.894Z,2.93
2019-01-13T18:09:22.843Z,3.83
2019-01-13T18:11:56.242Z,5.30
2019-01-13T18:14:28.782Z,4.23
2019-01-13T18:16:58.593Z,3.57
2019-01-13T18:19:31.703Z,3.57
2019-01-13T18:22:03.335Z,3.37
2019-01-13T18:24:34.615Z,2.07
2019-01-13T18:27:12.873Z,2.47
2019-01-13T18:29:44.213Z,3.83
2019-01-13T18:32:16.748Z,3.07
2019-01-13T18:34:50.382Z,3.70
2019-01-13T18:37:19.505Z,2.13
2019-01-13T18:39:53.482Z,2.80
2019-01-13T18:42:23.208Z,2.40
2019-01-13T18:44:53.114Z,1.83
2019-01-13T18:47:26.235Z,2.53
2019-01-13T18:49:56.092Z,2.80
2019-01-13T18:52:29.120Z,2.20
2019-01-13T18:55:02.132Z,3.80
2019-01-13T18:57:31.925Z,2.50
2019-01-13T19:00:03.055Z,2.87
2019-01-13T19:02:32.883Z,3.80
2019-01-13T19:05:02.977Z,2.47
2019-01-13T19:07:32.768Z,3.10
2019-01-13T19:10:05.146Z,2.70
2019-01-13T19:12:45.908Z,4.00
2019-01-13T19:15:18.078Z,2.73
2019-01-13T19:17:47.885Z,3.00
2019-01-13T19:20:20.999Z,2.90
2019-01-13T19:22:55.999Z,3.10
2019-01-13T19:25:36.561Z,2.77
2019-01-13T19:28:06.529Z,1.37
2019-01-13T19:30:45.598Z,2.10
2019-01-13T19:33:16.382Z,2.50
2019-01-13T19:35:56.576Z,3.83
2019-01-13T19:38:28.744Z,2.17
2019-01-13T19:41:18.213Z,2.13
2019-01-13T19:43:51.433Z,2.17
2019-01-13T19:46:26.611Z,3.50
2019-01-13T19:48:56.718Z,3.63
2019-01-13T19:51:31.575Z,4.33
2019-01-13T19:54:01.760Z,2.60
2019-01-13T19:56:32.026Z,3.43
2019-01-13T19:59:02.052Z,2.20
2019-01-13T20:01:34.532Z,2.10
2019-01-13T20:04:08.449Z,2.10
2019-01-13T20:06:40.881Z,2.93
2019-01-13T20:09:11.971Z,2.50
2019-01-13T20:11:44.886Z,3.43
2019-01-13T20:14:14.807Z,1.70
2019-01-13T20:16:48.661Z,2.83
2019-01-13T20:19:18.648Z,2.30
2019-01-13T20:21:53.223Z,2.53
2019-01-13T20:24:25.430Z,2.30
2019-01-13T20:27:17.937Z,2.77
2019-01-13T20:29:52.420Z,2.80
2019-01-13T20:32:34.633Z,2.60
2019-01-13T20:35:01.038Z,1.83
2019-01-13T20:37:35.606Z,2.57
2019-01-13T20:40:27.917Z,3.03
2019-01-13T20:43:00.737Z,2.53
2019-01-13T20:45:35.691Z,2.00
2019-01-13T20:48:06.457Z,2.40
2019-01-13T20:50:38.597Z,1.93
2019-01-13T20:53:12.309Z,2.53
2019-01-13T20:55:43.161Z,1.97
2019-01-13T20:58:14.737Z,2.13
2019-01-13T21:00:51.113Z,1.50
2019-01-13T21:03:25.379Z,1.33
2019-01-13T21:05:55.414Z,2.00
2019-01-13T21:08:32.121Z,2.10
2019-01-13T21:11:03.319Z,2.27
2019-01-13T21:13:33.103Z,2.90
2019-01-13T21:16:02.898Z,2.83
2019-01-13T21:18:32.773Z,3.00
2019-01-13T21:21:02.727Z,2.20
2019-01-13T21:23:32.448Z,2.57
2019-01-13T21:26:02.782Z,1.93
2019-01-13T21:28:32.512Z,2.40
2019-01-13T21:31:02.307Z,2.30
2019-01-13T21:33:32.030Z,2.40
2019-01-13T21:36:01.783Z,2.50
2019-01-13T21:38:31.509Z,2.07
2019-01-13T21:41:04.231Z,1.60
2019-01-13T21:43:36.444Z,2.13
2019-01-13T21:46:11.160Z,3.07
2019-01-13T21:48:42.822Z,2.93
2019-01-13T21:51:12.731Z,2.70
2019-01-13T21:53:43.613Z,2.40
2019-01-13T21:56:13.668Z,2.90
2019-01-13T21:58:43.483Z,3.67
2019-01-13T22:01:13.461Z,2.30
2019-01-13T22:03:44.224Z,2.87
2019-01-13T22:06:13.887Z,2.10
2019-01-13T22:08:43.567Z,2.50
2019-01-13T22:11:13.344Z,1.90
2019-01-13T22:13:43.025Z,2.93
2019-01-13T22:16:12.774Z,3.33
2019-01-13T22:18:42.526Z,2.53
2019-01-13T22:21:12.273Z,2.20
2019-01-13T22:23:41.944Z,2.80
2019-01-13T22:26:11.683Z,2.40
2019-01-13T22:28:42.008Z,2.87
2019-01-13T22:31:11.851Z,2.93
2019-01-13T22:33:41.556Z,2.20
2019-01-13T22:36:11.221Z,2.63
2019-01-13T22:38:40.984Z,2.70
2019-01-13T22:41:10.807Z,1.97
2019-01-13T22:43:41.022Z,3.37
2019-01-13T22:46:13.669Z,2.77
2019-01-13T22:48:43.344Z,1.47
2019-01-13T22:51:13.135Z,2.60
2019-01-13T22:53:42.883Z,2.47
2019-01-13T22:56:12.649Z,2.77
2019-01-13T22:58:42.336Z,2.47
2019-01-13T23:01:37.048Z,2.37
2019-01-13T23:04:12.410Z,1.67
2019-01-13T23:06:42.167Z,3.30
2019-01-13T23:09:12.961Z,2.87
2019-01-13T23:11:42.743Z,3.87
2019-01-13T23:14:12.759Z,2.63
2019-01-13T23:16:45.677Z,3.67
2019-01-13T23:19:15.479Z,3.47
2019-01-13T23:21:45.247Z,3.03
2019-01-13T23:24:14.907Z,2.63
2019-01-13T23:26:44.653Z,3.20
2019-01-13T23:29:14.319Z,2.60
2019-01-13T23:31:44.072Z,2.33
2019-01-13T23:34:13.902Z,2.17
2019-01-13T23:36:43.566Z,2.47
2019-01-13T23:39:13.392Z,3.17
2019-01-13T23:41:43.176Z,3.77
2019-01-13T23:44:12.897Z,3.20
2019-01-13T23:46:42.771Z,2.77
2019-01-13T23:49:14.249Z,2.53
2019-01-13T23:51:43.915Z,3.13
2019-01-13T23:54:13.603Z,2.10
2019-01-13T23:56:44.126Z,2.47
2019-01-13T23:59:13.867Z,2.57
